Time;durP1;ratioP1;P1;durP2;ratioP2;P2;SDS_P1;SDS_P2;PMS_P1;PMS_P2;Temp;Humidity;BMP_temperature;BMP_pressure;BME280_temperature;BME280_humidity;BME280_pressure;Samples;Min_cycle;Max_cycle;Signal;HPM_P1;HPM_P2
2023/10/30 00:00:45;;;;;;;0.70;0.70;;;;;;;;;;5076354;28;20048;-78
2023/10/30 00:03:11;;;;;;;0.60;0.60;;;;;;;;;;5069847;28;20529;-77
2023/10/30 00:05:37;;;;;;;1.13;0.73;;;;;;;;;;5077706;28;20025;-79
2023/10/30 00:08:04;;;;;;;0.80;0.70;;;;;;;;;;5076614;28;20475;-78
2023/10/30 00:10:30;;;;;;;0.57;0.57;;;;;;;;;;5066774;28;20025;-79
2023/10/30 00:12:56;;;;;;;0.63;0.63;;;;;;;;;;5076993;28;20387;-78
2023/10/30 00:15:23;;;;;;;0.73;0.50;;;;;;;;;;5076816;28;20017;-79
2023/10/30 00:17:49;;;;;;;0.70;0.60;;;;;;;;;;5077305;28;20087;-78
2023/10/30 00:20:15;;;;;;;1.10;0.90;;;;;;;;;;5083333;28;20108;-78
2023/10/30 00:22:41;;;;;;;0.98;0.82;;;;;;;;;;5084280;28;20036;-78
2023/10/30 00:25:07;;;;;;;0.70;0.68;;;;;;;;;;5079180;28;20035;-79
2023/10/30 00:27:33;;;;;;;0.80;0.80;;;;;;;;;;5078109;28;20468;-79
2023/10/30 00:29:59;;;;;;;0.70;0.70;;;;;;;;;;5078652;28;20033;-79
2023/10/30 00:32:25;;;;;;;1.00;0.73;;;;;;;;;;5078091;28;20028;-79
2023/10/30 00:34:51;;;;;;;0.75;0.75;;;;;;;;;;5077308;28;20017;-77
2023/10/30 00:37:17;;;;;;;0.52;0.52;;;;;;;;;;5076870;28;20032;-77
2023/10/30 00:39:44;;;;;;;1.35;0.80;;;;;;;;;;5086101;28;20039;-78
2023/10/30 00:42:10;;;;;;;1.17;0.65;;;;;;;;;;5084795;28;20029;-78
2023/10/30 00:44:39;;;;;;;0.80;0.80;;;;;;;;;;5077347;28;20020;-78
2023/10/30 00:47:05;;;;;;;0.82;0.82;;;;;;;;;;5074996;28;20044;-78
2023/10/30 00:49:32;;;;;;;1.08;0.60;;;;;;;;;;5077129;28;20020;-79
2023/10/30 00:51:58;;;;;;;0.57;0.50;;;;;;;;;;5077575;28;20506;-78
2023/10/30 00:54:24;;;;;;;0.65;0.60;;;;;;;;;;5077679;28;20027;-80
2023/10/30 00:56:50;;;;;;;0.75;0.75;;;;;;;;;;5077768;28;20077;-78
2023/10/30 00:59:16;;;;;;;0.73;0.73;;;;;;;;;;5083282;28;20036;-78
2023/10/30 01:01:42;;;;;;;1.05;0.82;;;;;;;;;;5087156;28;20016;-80
2023/10/30 01:04:09;;;;;;;1.35;0.73;;;;;;;;;;5080532;28;20020;-79
2023/10/30 01:06:35;;;;;;;0.63;0.50;;;;;;;;;;5098426;28;20032;-79
2023/10/30 01:09:01;;;;;;;0.50;0.50;;;;;;;;;;5098297;28;20013;-79
2023/10/30 01:11:27;;;;;;;0.73;0.65;;;;;;;;;;5097769;28;20036;-79
2023/10/30 01:13:53;;;;;;;0.63;0.50;;;;;;;;;;5097935;28;20025;-78
2023/10/30 01:16:19;;;;;;;0.60;0.60;;;;;;;;;;5076227;28;20104;-79
2023/10/30 01:18:45;;;;;;;0.93;0.80;;;;;;;;;;5082240;28;20024;-79
2023/10/30 01:21:15;;;;;;;0.40;0.40;;;;;;;;;;5074639;28;20027;-78
2023/10/30 01:23:41;;;;;;;0.47;0.47;;;;;;;;;;5075076;28;20103;-77
2023/10/30 01:26:07;;;;;;;0.60;0.40;;;;;;;;;;5079579;28;20027;-78
2023/10/30 01:28:33;;;;;;;0.98;0.95;;;;;;;;;;5081585;28;20016;-78
2023/10/30 01:30:59;;;;;;;0.60;0.60;;;;;;;;;;5086743;28;20028;-79
2023/10/30 01:33:25;;;;;;;0.47;0.47;;;;;;;;;;5081583;28;20017;-78
2023/10/30 01:35:52;;;;;;;0.52;0.52;;;;;;;;;;5078019;28;20391;-78
2023/10/30 01:38:18;;;;;;;0.60;0.60;;;;;;;;;;5076644;28;20025;-78
2023/10/30 01:40:50;;;;;;;0.88;0.60;;;;;;;;;;5074913;28;20375;-78
2023/10/30 01:43:17;;;;;;;0.63;0.60;;;;;;;;;;5059645;28;20021;-78
2023/10/30 01:45:43;;;;;;;0.50;0.50;;;;;;;;;;5069456;28;20028;-78
2023/10/30 01:48:10;;;;;;;0.95;0.85;;;;;;;;;;5075491;28;20732;-78
2023/10/30 01:50:37;;;;;;;0.55;0.50;;;;;;;;;;5076431;28;20028;-79
2023/10/30 01:53:03;;;;;;;1.17;0.82;;;;;;;;;;5056566;28;20028;-78
2023/10/30 01:55:30;;;;;;;0.52;0.52;;;;;;;;;;5075004;28;20549;-78
2023/10/30 01:57:56;;;;;;;0.50;0.50;;;;;;;;;;5076073;28;20103;-78
2023/10/30 02:00:23;;;;;;;0.55;0.55;;;;;;;;;;5074996;28;20467;-77
2023/10/30 02:02:51;;;;;;;0.70;0.52;;;;;;;;;;5061454;28;20056;-77
2023/10/30 02:05:18;;;;;;;0.50;0.50;;;;;;;;;;5067569;28;20028;-78
2023/10/30 02:07:44;;;;;;;1.10;0.80;;;;;;;;;;5075807;28;20409;-78
2023/10/30 02:10:11;;;;;;;0.47;0.47;;;;;;;;;;5076950;28;20035;-79
2023/10/30 02:12:37;;;;;;;0.45;0.45;;;;;;;;;;5065991;28;20025;-79
2023/10/30 02:15:04;;;;;;;0.60;0.60;;;;;;;;;;5075442;28;20028;-78
2023/10/30 02:17:30;;;;;;;0.43;0.43;;;;;;;;;;5077863;28;20025;-79
2023/10/30 02:19:56;;;;;;;0.80;0.70;;;;;;;;;;5082750;28;20080;-80
2023/10/30 02:22:22;;;;;;;0.88;0.70;;;;;;;;;;5096578;28;20051;-79
2023/10/30 02:24:48;;;;;;;1.73;1.00;;;;;;;;;;5077686;28;20159;-78
2023/10/30 02:27:14;;;;;;;0.57;0.57;;;;;;;;;;5076301;28;20074;-79
2023/10/30 02:29:40;;;;;;;0.50;0.43;;;;;;;;;;5077138;28;20028;-80
2023/10/30 02:32:06;;;;;;;0.60;0.60;;;;;;;;;;5057472;28;20048;-78
2023/10/30 02:34:33;;;;;;;0.57;0.57;;;;;;;;;;5077562;28;20024;-79
2023/10/30 02:37:00;;;;;;;0.80;0.80;;;;;;;;;;5075496;28;20426;-78
2023/10/30 02:39:32;;;;;;;0.63;0.63;;;;;;;;;;5076681;28;20070;-79
2023/10/30 02:41:58;;;;;;;0.47;0.47;;;;;;;;;;5078362;28;20033;-78
2023/10/30 02:44:24;;;;;;;0.60;0.60;;;;;;;;;;5081021;28;20025;-79
2023/10/30 02:46:51;;;;;;;0.70;0.55;;;;;;;;;;5077699;28;20091;-78
2023/10/30 02:49:17;;;;;;;0.52;0.50;;;;;;;;;;5076087;28;20021;-79
2023/10/30 02:51:43;;;;;;;0.50;0.50;;;;;;;;;;5074879;28;20025;-78
2023/10/30 02:54:09;;;;;;;0.82;0.75;;;;;;;;;;5075916;28;20028;-78
2023/10/30 02:56:35;;;;;;;0.82;0.68;;;;;;;;;;5075452;28;20036;-78
2023/10/30 02:59:01;;;;;;;0.40;0.40;;;;;;;;;;5076022;28;20020;-78
2023/10/30 03:01:28;;;;;;;0.47;0.47;;;;;;;;;;5076983;28;20035;-79
2023/10/30 03:03:55;;;;;;;0.88;0.70;;;;;;;;;;5075442;28;20032;-81
2023/10/30 03:06:21;;;;;;;1.05;0.95;;;;;;;;;;5078645;28;20035;-79
2023/10/30 03:08:47;;;;;;;0.55;0.55;;;;;;;;;;5077451;28;20391;-78
2023/10/30 03:11:13;;;;;;;0.47;0.47;;;;;;;;;;5078771;28;20031;-79
2023/10/30 03:13:39;;;;;;;0.45;0.43;;;;;;;;;;5083687;28;20024;-78
2023/10/30 03:16:06;;;;;;;0.55;0.55;;;;;;;;;;5090611;28;20016;-77
2023/10/30 03:18:32;;;;;;;0.47;0.47;;;;;;;;;;5090407;28;20025;-78
2023/10/30 03:20:58;;;;;;;0.75;0.73;;;;;;;;;;5091128;28;20039;-77
2023/10/30 03:23:24;;;;;;;1.38;1.27;;;;;;;;;;5091625;28;20426;-77
2023/10/30 03:25:50;;;;;;;0.77;0.77;;;;;;;;;;5091511;28;20033;-78
2023/10/30 03:28:16;;;;;;;0.70;0.60;;;;;;;;;;5090140;28;20052;-79
2023/10/30 03:30:42;;;;;;;0.60;0.45;;;;;;;;;;5077999;28;20024;-79
2023/10/30 03:33:09;;;;;;;0.75;0.68;;;;;;;;;;5078230;28;20051;-78
2023/10/30 03:35:39;;;;;;;0.75;0.68;;;;;;;;;;5079867;28;20025;-79
2023/10/30 03:38:06;;;;;;;0.50;0.50;;;;;;;;;;5089364;28;20055;-77
2023/10/30 03:40:32;;;;;;;0.45;0.45;;;;;;;;;;5109674;28;20083;-78
2023/10/30 03:42:58;;;;;;;0.55;0.55;;;;;;;;;;5101634;28;20418;-78
2023/10/30 03:45:24;;;;;;;0.57;0.57;;;;;;;;;;5099712;28;20071;-79
2023/10/30 03:47:50;;;;;;;0.70;0.70;;;;;;;;;;5098760;28;20040;-79
2023/10/30 03:50:16;;;;;;;0.43;0.40;;;;;;;;;;5090120;28;20076;-77
2023/10/30 03:52:43;;;;;;;0.65;0.60;;;;;;;;;;5090080;28;20032;-77
2023/10/30 03:55:10;;;;;;;0.30;0.30;;;;;;;;;;5091717;28;20052;-78
2023/10/30 03:57:36;;;;;;;0.52;0.52;;;;;;;;;;5065587;28;20029;-77
2023/10/30 04:00:03;;;;;;;0.88;0.70;;;;;;;;;;5090532;28;20035;-77
2023/10/30 04:02:29;;;;;;;0.90;0.63;;;;;;;;;;5087527;28;20043;-77
2023/10/30 04:04:55;;;;;;;0.60;0.60;;;;;;;;;;5071987;28;20115;-75
2023/10/30 04:07:21;;;;;;;0.60;0.60;;;;;;;;;;5082455;28;20029;-74
2023/10/30 04:09:47;;;;;;;0.60;0.60;;;;;;;;;;5087254;28;20040;-75
2023/10/30 04:12:13;;;;;;;0.60;0.60;;;;;;;;;;5082260;28;20009;-74
2023/10/30 04:14:39;;;;;;;0.63;0.63;;;;;;;;;;5089647;28;20025;-74
2023/10/30 04:17:06;;;;;;;0.50;0.50;;;;;;;;;;5089861;28;20028;-73
2023/10/30 04:19:32;;;;;;;1.13;0.80;;;;;;;;;;5094093;28;20026;-74
2023/10/30 04:21:58;;;;;;;0.45;0.45;;;;;;;;;;5093915;28;20039;-74
2023/10/30 04:24:24;;;;;;;0.63;0.63;;;;;;;;;;5082396;28;20054;-76
2023/10/30 04:26:50;;;;;;;1.30;0.60;;;;;;;;;;5092788;28;20082;-74
2023/10/30 04:29:16;;;;;;;0.60;0.60;;;;;;;;;;5074348;28;20020;-75
2023/10/30 04:31:42;;;;;;;0.95;0.75;;;;;;;;;;5073903;28;20474;-74
2023/10/30 04:34:08;;;;;;;3.47;0.98;;;;;;;;;;5068234;28;20028;-76
2023/10/30 04:36:34;;;;;;;1.42;1.05;;;;;;;;;;5071580;28;20025;-76
2023/10/30 04:39:00;;;;;;;1.27;0.93;;;;;;;;;;5073814;28;20036;-76
2023/10/30 04:41:26;;;;;;;2.75;1.70;;;;;;;;;;5073848;28;20025;-74
2023/10/30 04:43:53;;;;;;;3.33;1.67;;;;;;;;;;5072151;28;20097;-75
2023/10/30 04:46:19;;;;;;;3.67;1.85;;;;;;;;;;5073854;28;20024;-74
2023/10/30 04:48:45;;;;;;;1.63;1.17;;;;;;;;;;5073386;28;20031;-75
2023/10/30 04:51:11;;;;;;;2.00;1.60;;;;;;;;;;5073053;28;20036;-75
2023/10/30 04:53:37;;;;;;;2.00;1.45;;;;;;;;;;5071813;28;20094;-74
2023/10/30 04:56:04;;;;;;;2.08;1.38;;;;;;;;;;5073895;28;20043;-74
2023/10/30 04:58:30;;;;;;;1.27;1.00;;;;;;;;;;5073441;28;20047;-75
2023/10/30 05:00:56;;;;;;;1.40;1.30;;;;;;;;;;5073705;28;20486;-74
2023/10/30 05:03:22;;;;;;;1.23;1.00;;;;;;;;;;5073583;28;20042;-76
2023/10/30 05:05:49;;;;;;;1.58;1.05;;;;;;;;;;5073567;28;20499;-76
2023/10/30 05:08:17;;;;;;;2.55;0.98;;;;;;;;;;5074100;28;20417;-76
2023/10/30 05:10:43;;;;;;;1.15;1.00;;;;;;;;;;5074639;28;20013;-75
2023/10/30 05:13:09;;;;;;;1.15;1.02;;;;;;;;;;5073731;28;20047;-76
2023/10/30 05:15:36;;;;;;;1.08;0.95;;;;;;;;;;5055530;28;20024;-76
2023/10/30 05:18:02;;;;;;;1.77;1.17;;;;;;;;;;5073130;28;20020;-76
2023/10/30 05:20:28;;;;;;;2.58;1.73;;;;;;;;;;5073431;28;20520;-76
2023/10/30 05:22:54;;;;;;;2.47;1.90;;;;;;;;;;5066561;28;20118;-76
2023/10/30 05:25:20;;;;;;;1.70;1.60;;;;;;;;;;5035917;28;20021;-77
2023/10/30 05:27:47;;;;;;;2.65;1.60;;;;;;;;;;5053319;28;20423;-76
2023/10/30 05:30:13;;;;;;;2.17;1.52;;;;;;;;;;5054938;28;20025;-77
2023/10/30 05:32:40;;;;;;;2.08;1.70;;;;;;;;;;5054930;28;20025;-78
2023/10/30 05:35:06;;;;;;;1.35;1.25;;;;;;;;;;5055225;28;20028;-77
2023/10/30 05:37:32;;;;;;;1.80;1.20;;;;;;;;;;5054798;28;20025;-77
2023/10/30 05:39:58;;;;;;;1.98;1.50;;;;;;;;;;5064978;28;20502;-77
2023/10/30 05:42:24;;;;;;;1.30;1.20;;;;;;;;;;5062899;28;20035;-78
2023/10/30 05:44:51;;;;;;;1.10;1.00;;;;;;;;;;5055588;28;20024;-77
2023/10/30 05:47:17;;;;;;;0.93;0.90;;;;;;;;;;5073617;28;20032;-77
2023/10/30 05:49:45;;;;;;;0.68;0.68;;;;;;;;;;5054607;28;20063;-77
2023/10/30 05:52:11;;;;;;;1.65;1.13;;;;;;;;;;5036972;28;20025;-78
2023/10/30 05:54:37;;;;;;;1.23;1.13;;;;;;;;;;5054321;28;20031;-76
2023/10/30 05:57:03;;;;;;;1.55;0.88;;;;;;;;;;5058612;28;20028;-77
2023/10/30 05:59:29;;;;;;;1.08;0.88;;;;;;;;;;5077348;28;20504;-78
2023/10/30 06:01:55;;;;;;;1.20;1.10;;;;;;;;;;5052061;28;20020;-78
2023/10/30 06:04:22;;;;;;;1.38;1.00;;;;;;;;;;5082806;28;20020;-78
2023/10/30 06:06:48;;;;;;;0.90;0.90;;;;;;;;;;5075597;28;20031;-78
2023/10/30 06:09:14;;;;;;;0.90;0.75;;;;;;;;;;5076840;28;20036;-76
2023/10/30 06:11:40;;;;;;;1.00;1.00;;;;;;;;;;5073155;28;20204;-75
2023/10/30 06:14:06;;;;;;;0.63;0.63;;;;;;;;;;5073628;28;20082;-77
2023/10/30 06:16:32;;;;;;;0.75;0.75;;;;;;;;;;5054282;28;20029;-78
2023/10/30 06:18:58;;;;;;;0.70;0.70;;;;;;;;;;5053003;28;20036;-77
2023/10/30 06:21:24;;;;;;;0.95;0.85;;;;;;;;;;5057354;28;20029;-77
2023/10/30 06:23:50;;;;;;;0.57;0.57;;;;;;;;;;5056347;28;20444;-76
2023/10/30 06:26:17;;;;;;;0.70;0.70;;;;;;;;;;5058295;28;20033;-78
2023/10/30 06:28:44;;;;;;;0.60;0.60;;;;;;;;;;5059826;28;20025;-77
2023/10/30 06:31:14;;;;;;;0.70;0.70;;;;;;;;;;5075451;28;20029;-77
2023/10/30 06:33:40;;;;;;;0.70;0.68;;;;;;;;;;5057547;28;20499;-77
2023/10/30 06:36:06;;;;;;;0.60;0.60;;;;;;;;;;5053014;28;20021;-77
2023/10/30 06:38:33;;;;;;;0.73;0.68;;;;;;;;;;5060376;28;20095;-78
2023/10/30 06:40:59;;;;;;;0.57;0.57;;;;;;;;;;5088638;28;20089;-77
2023/10/30 06:43:26;;;;;;;0.68;0.68;;;;;;;;;;5099435;28;20024;-77
2023/10/30 06:46:05;;;;;;;0.70;0.70;;;;;;;;;;5079332;28;20395;-77
2023/10/30 06:48:31;;;;;;;0.55;0.55;;;;;;;;;;5077084;28;20115;-77
2023/10/30 06:50:57;;;;;;;0.47;0.47;;;;;;;;;;5056478;28;20021;-77
2023/10/30 06:53:24;;;;;;;1.05;0.82;;;;;;;;;;5058348;28;20025;-77
2023/10/30 06:55:50;;;;;;;0.98;0.70;;;;;;;;;;5059425;28;20017;-79
2023/10/30 06:58:21;;;;;;;0.50;0.50;;;;;;;;;;5040875;28;20029;-80
2023/10/30 07:00:47;;;;;;;0.73;0.73;;;;;;;;;;5063149;28;20044;-77
2023/10/30 07:03:14;;;;;;;0.43;0.40;;;;;;;;;;5058395;28;20021;-79
2023/10/30 07:05:42;;;;;;;0.80;0.80;;;;;;;;;;5066395;28;20095;-79
2023/10/30 07:08:09;;;;;;;0.40;0.40;;;;;;;;;;5076004;28;20104;-77
2023/10/30 07:10:35;;;;;;;0.50;0.50;;;;;;;;;;5076883;28;20024;-78
2023/10/30 07:13:01;;;;;;;0.70;0.70;;;;;;;;;;5059806;28;20410;-78
2023/10/30 07:15:28;;;;;;;0.68;0.68;;;;;;;;;;5097041;28;20039;-78
2023/10/30 07:17:55;;;;;;;0.80;0.60;;;;;;;;;;5082074;28;20032;-77
2023/10/30 07:20:27;;;;;;;0.68;0.68;;;;;;;;;;5099464;28;20021;-78
2023/10/30 07:22:53;;;;;;;;;;;;;;;;;;5097381;28;20091;-78
2023/10/30 07:25:19;;;;;;;0.98;0.70;;;;;;;;;;5079960;28;19913;-78
2023/10/30 07:27:47;;;;;;;0.40;0.40;;;;;;;;;;5079833;28;20021;-78
2023/10/30 07:30:13;;;;;;;0.70;0.70;;;;;;;;;;5070098;28;20112;-78
2023/10/30 07:32:40;;;;;;;0.90;0.90;;;;;;;;;;5073636;28;20502;-79
2023/10/30 07:35:07;;;;;;;0.80;0.80;;;;;;;;;;5077953;28;20065;-77
2023/10/30 07:37:37;;;;;;;0.70;0.70;;;;;;;;;;5077176;28;20013;-79
2023/10/30 07:40:04;;;;;;;1.30;1.10;;;;;;;;;;5088071;28;20032;-79
2023/10/30 07:42:31;;;;;;;1.23;1.13;;;;;;;;;;5082883;28;20031;-78
2023/10/30 07:44:57;;;;;;;1.98;1.65;;;;;;;;;;5077608;28;20033;-78
2023/10/30 07:47:23;;;;;;;1.60;1.40;;;;;;;;;;5080768;28;20099;-78
2023/10/30 07:49:49;;;;;;;2.08;1.30;;;;;;;;;;5078500;28;20107;-78
2023/10/30 07:52:15;;;;;;;3.50;1.73;;;;;;;;;;5078003;28;20071;-78
2023/10/30 07:54:41;;;;;;;1.55;1.17;;;;;;;;;;5082106;28;20153;-78
2023/10/30 07:57:09;;;;;;;1.80;1.60;;;;;;;;;;5076459;28;20024;-78
2023/10/30 07:59:36;;;;;;;2.40;1.70;;;;;;;;;;5063682;28;20053;-77
2023/10/30 08:02:03;;;;;;;2.17;1.73;;;;;;;;;;5057168;28;20029;-75
2023/10/30 08:04:29;;;;;;;3.08;2.05;;;;;;;;;;5057430;28;20021;-76
2023/10/30 08:06:55;;;;;;;2.83;2.00;;;;;;;;;;5056564;28;20155;-76
2023/10/30 08:09:21;;;;;;;2.25;2.05;;;;;;;;;;5065447;28;20646;-77
2023/10/30 08:11:47;;;;;;;2.88;1.85;;;;;;;;;;5083419;28;20150;-76
2023/10/30 08:14:14;;;;;;;2.50;1.77;;;;;;;;;;5076250;28;20017;-77
2023/10/30 08:16:40;;;;;;;1.95;1.77;;;;;;;;;;5058322;28;20017;-77
2023/10/30 08:19:06;;;;;;;2.95;1.70;;;;;;;;;;5058336;28;20028;-78
2023/10/30 08:21:32;;;;;;;2.08;1.55;;;;;;;;;;5075978;28;20032;-78
2023/10/30 08:23:58;;;;;;;2.03;1.70;;;;;;;;;;5077791;28;20036;-76
2023/10/30 08:26:25;;;;;;;3.25;1.48;;;;;;;;;;5076109;28;20089;-77
2023/10/30 08:28:52;;;;;;;1.65;1.30;;;;;;;;;;5075685;28;20055;-76
2023/10/30 08:31:18;;;;;;;1.30;1.20;;;;;;;;;;5075930;28;20192;-76
2023/10/30 08:33:44;;;;;;;1.48;1.25;;;;;;;;;;5094450;28;20025;-74
2023/10/30 08:36:10;;;;;;;1.77;1.15;;;;;;;;;;5092063;28;20484;-76
2023/10/30 08:38:38;;;;;;;1.13;1.00;;;;;;;;;;5086769;28;20059;-76
2023/10/30 08:41:04;;;;;;;1.25;1.08;;;;;;;;;;5077819;28;20016;-77
2023/10/30 08:43:30;;;;;;;0.82;0.80;;;;;;;;;;5075750;28;20017;-76
2023/10/30 08:45:57;;;;;;;2.25;1.65;;;;;;;;;;5076536;28;20024;-76
2023/10/30 08:48:23;;;;;;;1.67;1.48;;;;;;;;;;5076905;28;20459;-77
2023/10/30 08:50:49;;;;;;;1.40;1.30;;;;;;;;;;5077704;28;20024;-77
2023/10/30 08:53:15;;;;;;;1.23;1.17;;;;;;;;;;5073762;28;20502;-76
2023/10/30 08:55:41;;;;;;;1.27;0.95;;;;;;;;;;5058167;28;20060;-75
2023/10/30 08:58:08;;;;;;;1.10;1.02;;;;;;;;;;5056486;28;20025;-77
2023/10/30 09:00:34;;;;;;;1.15;0.85;;;;;;;;;;5055265;28;20017;-76
2023/10/30 09:03:00;;;;;;;1.00;1.00;;;;;;;;;;5055716;28;20508;-76
2023/10/30 09:05:26;;;;;;;1.35;1.25;;;;;;;;;;5056323;28;20025;-77
2023/10/30 09:07:52;;;;;;;1.30;1.20;;;;;;;;;;5057570;28;20032;-76
2023/10/30 09:10:18;;;;;;;2.70;1.55;;;;;;;;;;5095116;28;20028;-75
2023/10/30 09:12:45;;;;;;;2.55;1.90;;;;;;;;;;5111346;28;20031;-76
2023/10/30 09:15:13;;;;;;;2.42;1.58;;;;;;;;;;5116073;28;20035;-76
2023/10/30 09:17:39;;;;;;;2.33;1.92;;;;;;;;;;5105172;28;20092;-77
2023/10/30 09:20:05;;;;;;;2.45;1.98;;;;;;;;;;5095066;28;20076;-75
2023/10/30 09:22:33;;;;;;;2.65;1.75;;;;;;;;;;5096007;28;20029;-75
2023/10/30 09:24:59;;;;;;;1.30;1.20;;;;;;;;;;5072233;28;20482;-76
2023/10/30 09:27:25;;;;;;;2.63;1.70;;;;;;;;;;5088744;28;20084;-75
2023/10/30 09:29:51;;;;;;;2.42;1.60;;;;;;;;;;5094616;28;20050;-76
2023/10/30 09:32:18;;;;;;;1.77;1.42;;;;;;;;;;5093614;28;20035;-75
2023/10/30 09:34:45;;;;;;;1.42;1.33;;;;;;;;;;5084379;28;20086;-75
2023/10/30 09:37:11;;;;;;;1.52;1.30;;;;;;;;;;5072934;28;20044;-76
2023/10/30 09:39:37;;;;;;;1.30;1.20;;;;;;;;;;5094219;28;20054;-76
2023/10/30 09:42:03;;;;;;;2.67;1.58;;;;;;;;;;5093665;28;20028;-76
2023/10/30 09:44:30;;;;;;;3.20;1.60;;;;;;;;;;5094785;28;20084;-76
2023/10/30 09:46:57;;;;;;;1.33;0.88;;;;;;;;;;5094497;28;20036;-77
2023/10/30 09:49:24;;;;;;;1.05;1.02;;;;;;;;;;5077099;28;20019;-76
2023/10/30 09:51:50;;;;;;;0.98;0.88;;;;;;;;;;5091920;28;20035;-76
2023/10/30 09:54:18;;;;;;;1.35;1.08;;;;;;;;;;5076552;28;20020;-76
2023/10/30 09:56:44;;;;;;;1.70;0.95;;;;;;;;;;5092238;28;20017;-76
2023/10/30 09:59:13;;;;;;;0.93;0.90;;;;;;;;;;5089567;28;20021;-76
2023/10/30 10:01:40;;;;;;;0.63;0.60;;;;;;;;;;5092745;28;20029;-75
2023/10/30 10:04:06;;;;;;;0.63;0.63;;;;;;;;;;5089293;28;20032;-76
2023/10/30 10:06:32;;;;;;;1.90;1.00;;;;;;;;;;5078247;28;20039;-76
2023/10/30 10:08:58;;;;;;;0.60;0.60;;;;;;;;;;5060172;28;20028;-76
2023/10/30 10:11:32;;;;;;;0.65;0.60;;;;;;;;;;5078059;28;20386;-75
2023/10/30 10:13:58;;;;;;;0.40;0.40;;;;;;;;;;5099097;28;20101;-77
2023/10/30 10:16:31;;;;;;;1.40;0.88;;;;;;;;;;5081529;28;20032;-77
2023/10/30 10:18:57;;;;;;;1.23;0.80;;;;;;;;;;5099192;28;20032;-76
2023/10/30 10:21:23;;;;;;;2.42;1.23;;;;;;;;;;5101126;28;20084;-76
2023/10/30 10:23:49;;;;;;;2.45;1.05;;;;;;;;;;5109742;28;20107;-75
2023/10/30 10:26:16;;;;;;;2.47;0.82;;;;;;;;;;5105575;28;20055;-76
2023/10/30 10:28:43;;;;;;;1.08;1.00;;;;;;;;;;5063852;28;20048;-76
2023/10/30 10:31:09;;;;;;;1.00;0.90;;;;;;;;;;5093522;28;20025;-75
2023/10/30 10:33:36;;;;;;;2.42;1.23;;;;;;;;;;5094789;28;20036;-75
2023/10/30 10:36:03;;;;;;;1.70;1.00;;;;;;;;;;5080100;28;20043;-75
2023/10/30 10:38:30;;;;;;;1.05;0.95;;;;;;;;;;5099361;28;20053;-76
2023/10/30 10:40:57;;;;;;;1.02;0.93;;;;;;;;;;5099694;28;20052;-76
2023/10/30 10:43:24;;;;;;;1.65;0.90;;;;;;;;;;5074443;28;20078;-76
2023/10/30 10:45:51;;;;;;;1.17;1.15;;;;;;;;;;5077973;28;20028;-76
2023/10/30 10:48:18;;;;;;;0.60;0.60;;;;;;;;;;5083874;28;20452;-76
2023/10/30 10:50:44;;;;;;;0.68;0.68;;;;;;;;;;5081386;28;20020;-75
2023/10/30 10:53:11;;;;;;;0.68;0.68;;;;;;;;;;5078913;28;20404;-76
2023/10/30 10:55:44;;;;;;;0.75;0.63;;;;;;;;;;5078260;28;20028;-76
2023/10/30 10:58:20;;;;;;;3.08;0.82;;;;;;;;;;5076374;28;20023;-75
2023/10/30 11:00:53;;;;;;;0.60;0.60;;;;;;;;;;5079704;28;20016;-76
2023/10/30 11:03:21;;;;;;;1.00;0.57;;;;;;;;;;5077329;28;20032;-76
2023/10/30 11:05:49;;;;;;;0.65;0.65;;;;;;;;;;5058835;28;20035;-76
2023/10/30 11:08:33;;;;;;;0.50;0.50;;;;;;;;;;5075813;28;20016;-77
2023/10/30 11:11:06;;;;;;;1.63;0.68;;;;;;;;;;5077180;28;20545;-76
2023/10/30 11:13:51;;;;;;;1.00;0.90;;;;;;;;;;5096640;28;20040;-76
2023/10/30 11:16:23;;;;;;;0.77;0.77;;;;;;;;;;5068313;28;20025;-77
2023/10/30 11:18:52;;;;;;;1.33;1.10;;;;;;;;;;5055587;28;20107;-77
2023/10/30 11:21:19;;;;;;;0.80;0.60;;;;;;;;;;5059880;28;20040;-76
2023/10/30 11:23:46;;;;;;;0.52;0.50;;;;;;;;;;5074544;28;20119;-76
2023/10/30 11:26:36;;;;;;;0.90;0.90;;;;;;;;;;5074704;28;20013;-77
2023/10/30 11:29:12;;;;;;;0.88;0.60;;;;;;;;;;5060820;28;20040;-77
2023/10/30 11:31:53;;;;;;;0.70;0.70;;;;;;;;;;5075105;28;20116;-76
2023/10/30 11:34:25;;;;;;;1.45;1.10;;;;;;;;;;5056091;28;20476;-76
2023/10/30 11:36:52;;;;;;;1.10;1.10;;;;;;;;;;5058353;28;20021;-77
2023/10/30 11:39:21;;;;;;;1.40;1.30;;;;;;;;;;5075917;28;20127;-74
2023/10/30 11:41:55;;;;;;;1.15;1.10;;;;;;;;;;5076144;28;20028;-76
2023/10/30 11:44:21;;;;;;;1.73;1.23;;;;;;;;;;5058207;28;20036;-76
2023/10/30 11:46:51;;;;;;;1.27;0.90;;;;;;;;;;5058079;28;20521;-76
2023/10/30 11:49:19;;;;;;;1.45;1.00;;;;;;;;;;5073686;28;20028;-74
2023/10/30 11:51:46;;;;;;;1.23;0.93;;;;;;;;;;5068925;28;20033;-76
2023/10/30 11:54:13;;;;;;;0.90;0.90;;;;;;;;;;5055391;28;20078;-75
2023/10/30 11:56:39;;;;;;;1.65;1.30;;;;;;;;;;5069484;28;20029;-76
2023/10/30 11:59:05;;;;;;;1.65;1.10;;;;;;;;;;5075546;28;20046;-74
2023/10/30 12:01:32;;;;;;;0.90;0.90;;;;;;;;;;5083005;28;20028;-76
2023/10/30 12:03:59;;;;;;;1.63;1.00;;;;;;;;;;5081109;28;20541;-77
2023/10/30 12:06:26;;;;;;;1.08;1.00;;;;;;;;;;5079809;28;20036;-76
2023/10/30 12:08:53;;;;;;;2.28;0.90;;;;;;;;;;5072470;28;20036;-77
2023/10/30 12:11:25;;;;;;;1.20;0.85;;;;;;;;;;5072474;28;20165;-76
2023/10/30 12:13:52;;;;;;;1.08;0.98;;;;;;;;;;5083317;28;20021;-76
2023/10/30 12:16:18;;;;;;;1.17;1.02;;;;;;;;;;5083900;28;20047;-76
2023/10/30 12:18:45;;;;;;;1.67;1.00;;;;;;;;;;5082184;28;20028;-76
2023/10/30 12:21:12;;;;;;;0.73;0.73;;;;;;;;;;5079524;28;20096;-77
2023/10/30 12:23:45;;;;;;;1.25;0.80;;;;;;;;;;5079145;28;20029;-75
2023/10/30 12:26:11;;;;;;;0.85;0.85;;;;;;;;;;5064356;28;20450;-76
2023/10/30 12:28:37;;;;;;;0.43;0.43;;;;;;;;;;5059717;28;20032;-75
2023/10/30 12:31:19;;;;;;;0.50;0.50;;;;;;;;;;5057506;28;20021;-77
2023/10/30 12:33:46;;;;;;;0.98;0.88;;;;;;;;;;5056558;28;20032;-76
2023/10/30 12:36:12;;;;;;;0.60;0.60;;;;;;;;;;5054479;28;20376;-76
2023/10/30 12:38:38;;;;;;;1.70;0.77;;;;;;;;;;5068843;28;20040;-76
2023/10/30 12:41:07;;;;;;;0.70;0.70;;;;;;;;;;5073283;28;20031;-77
2023/10/30 12:43:44;;;;;;;1.92;1.00;;;;;;;;;;5075177;28;20099;-77
2023/10/30 12:46:10;;;;;;;1.92;1.08;;;;;;;;;;5048972;28;20028;-76
2023/10/30 12:48:36;;;;;;;1.15;1.05;;;;;;;;;;5054818;28;20036;-76
2023/10/30 12:51:03;;;;;;;0.40;0.40;;;;;;;;;;5055182;28;20380;-76
2023/10/30 12:53:29;;;;;;;0.90;0.90;;;;;;;;;;5039535;28;20086;-76
2023/10/30 12:55:55;;;;;;;0.98;0.60;;;;;;;;;;5071317;28;20031;-76
2023/10/30 12:58:23;;;;;;;1.40;0.63;;;;;;;;;;5075132;28;20070;-76
2023/10/30 13:00:49;;;;;;;0.88;0.70;;;;;;;;;;5074389;28;20023;-77
2023/10/30 13:03:15;;;;;;;0.88;0.55;;;;;;;;;;5075500;28;20025;-77
2023/10/30 13:05:41;;;;;;;0.65;0.45;;;;;;;;;;5056451;28;20027;-78
2023/10/30 13:08:08;;;;;;;1.50;1.00;;;;;;;;;;5074519;28;20382;-76
2023/10/30 13:10:34;;;;;;;0.77;0.77;;;;;;;;;;5078802;28;20028;-75
2023/10/30 13:13:00;;;;;;;1.52;1.05;;;;;;;;;;5076876;28;20028;-75
2023/10/30 13:15:26;;;;;;;1.13;1.08;;;;;;;;;;5094686;28;20545;-77
2023/10/30 13:17:53;;;;;;;1.30;0.85;;;;;;;;;;5073429;28;20499;-75
2023/10/30 13:20:19;;;;;;;1.13;1.02;;;;;;;;;;5065168;28;20113;-76
2023/10/30 13:22:45;;;;;;;1.17;0.95;;;;;;;;;;5054133;28;20029;-76
2023/10/30 13:25:11;;;;;;;0.98;0.80;;;;;;;;;;5053946;28;20108;-77
2023/10/30 13:27:38;;;;;;;0.70;0.70;;;;;;;;;;5059478;28;20052;-76
2023/10/30 13:30:04;;;;;;;0.98;0.93;;;;;;;;;;5049827;28;20060;-74
2023/10/30 13:32:30;;;;;;;0.88;0.60;;;;;;;;;;5066089;28;20144;-75
2023/10/30 13:34:56;;;;;;;0.90;0.65;;;;;;;;;;5062400;28;20031;-76
2023/10/30 13:37:22;;;;;;;2.78;0.88;;;;;;;;;;5036281;28;20421;-75
2023/10/30 13:39:49;;;;;;;1.80;1.05;;;;;;;;;;5073574;28;20028;-76
2023/10/30 13:42:15;;;;;;;1.80;1.00;;;;;;;;;;5076636;28;20179;-76
2023/10/30 13:44:41;;;;;;;2.53;1.08;;;;;;;;;;5086432;28;20033;-76
2023/10/30 13:47:08;;;;;;;1.00;0.80;;;;;;;;;;5074453;28;20021;-77
2023/10/30 13:49:34;;;;;;;1.38;1.15;;;;;;;;;;5057073;28;20028;-77
2023/10/30 13:52:00;;;;;;;1.50;1.00;;;;;;;;;;5077567;28;20096;-77
2023/10/30 13:54:26;;;;;;;1.27;1.00;;;;;;;;;;5068867;28;20032;-75
2023/10/30 13:56:53;;;;;;;0.90;0.90;;;;;;;;;;5077919;28;20023;-76
2023/10/30 13:59:19;;;;;;;0.82;0.82;;;;;;;;;;5077787;28;20044;-76
2023/10/30 14:01:45;;;;;;;0.75;0.70;;;;;;;;;;5077403;28;20032;-75
2023/10/30 14:04:11;;;;;;;1.25;0.80;;;;;;;;;;5074742;28;20078;-75
2023/10/30 14:06:37;;;;;;;1.02;0.75;;;;;;;;;;5073043;28;20020;-76
2023/10/30 14:09:04;;;;;;;1.25;0.68;;;;;;;;;;5072109;28;20025;-76
2023/10/30 14:11:30;;;;;;;0.95;0.60;;;;;;;;;;5081252;28;20027;-76
2023/10/30 14:13:56;;;;;;;0.65;0.63;;;;;;;;;;5073062;28;20021;-76
2023/10/30 14:16:22;;;;;;;0.70;0.70;;;;;;;;;;5074113;28;20021;-76
2023/10/30 14:18:48;;;;;;;0.52;0.52;;;;;;;;;;5073910;28;20025;-75
2023/10/30 14:21:16;;;;;;;0.80;0.65;;;;;;;;;;5074341;28;20070;-77
2023/10/30 14:23:42;;;;;;;0.80;0.80;;;;;;;;;;5074136;28;20484;-77
2023/10/30 14:26:08;;;;;;;0.50;0.50;;;;;;;;;;5073009;28;20036;-76
2023/10/30 14:28:34;;;;;;;0.60;0.60;;;;;;;;;;5072188;28;20529;-76
2023/10/30 14:31:00;;;;;;;0.60;0.60;;;;;;;;;;5074344;28;20035;-75
2023/10/30 14:33:26;;;;;;;0.80;0.80;;;;;;;;;;5055139;28;20032;-76
2023/10/30 14:35:52;;;;;;;0.40;0.40;;;;;;;;;;5054303;28;20024;-76
2023/10/30 14:38:19;;;;;;;0.60;0.60;;;;;;;;;;5076566;28;20437;-76
2023/10/30 14:40:45;;;;;;;0.47;0.47;;;;;;;;;;5089079;28;20568;-76